sensor_id;sensor_type;location;lat;lon;timestamp;P1;durP1;ratioP1;P2;durP2;ratioP2
37983;SDS011;64625;50.882;4.376;2023-04-07T00:00:53;35.35;;;9.60;;
37983;SDS011;64625;50.882;4.376;2023-04-07T00:03:19;27.88;;;10.23;;
37983;SDS011;64625;50.882;4.376;2023-04-07T00:05:45;27.63;;;9.88;;
37983;SDS011;64625;50.882;4.376;2023-04-07T00:08:11;28.90;;;11.35;;
37983;SDS011;64625;50.882;4.376;2023-04-07T00:10:37;25.23;;;11.65;;
37983;SDS011;64625;50.882;4.376;2023-04-07T00:13:03;19.35;;;9.57;;
37983;SDS011;64625;50.882;4.376;2023-04-07T00:15:29;24.48;;;9.55;;
37983;SDS011;64625;50.882;4.376;2023-04-07T00:17:55;18.75;;;10.52;;
37983;SDS011;64625;50.882;4.376;2023-04-07T00:20:21;29.75;;;10.82;;
37983;SDS011;64625;50.882;4.376;2023-04-07T00:22:47;25.17;;;11.60;;
37983;SDS011;64625;50.882;4.376;2023-04-07T00:25:13;28.35;;;12.63;;
37983;SDS011;64625;50.882;4.376;2023-04-07T00:27:39;23.85;;;10.35;;
37983;SDS011;64625;50.882;4.376;2023-04-07T00:30:05;19.05;;;10.25;;
37983;SDS011;64625;50.882;4.376;2023-04-07T00:32:31;29.70;;;12.00;;
37983;SDS011;64625;50.882;4.376;2023-04-07T00:34:57;28.83;;;12.10;;
37983;SDS011;64625;50.882;4.376;2023-04-07T00:37:23;20.17;;;11.75;;
37983;SDS011;64625;50.882;4.376;2023-04-07T00:40:09;19.65;;;10.35;;
37983;SDS011;64625;50.882;4.376;2023-04-07T00:42:35;17.27;;;10.38;;
37983;SDS011;64625;50.882;4.376;2023-04-07T00:45:01;27.00;;;11.40;;
37983;SDS011;64625;50.882;4.376;2023-04-07T00:47:26;29.10;;;11.80;;
37983;SDS011;64625;50.882;4.376;2023-04-07T00:49:52;20.08;;;10.80;;
37983;SDS011;64625;50.882;4.376;2023-04-07T00:52:18;18.48;;;10.18;;
37983;SDS011;64625;50.882;4.376;2023-04-07T00:54:52;27.35;;;11.77;;
37983;SDS011;64625;50.882;4.376;2023-04-07T00:57:21;24.15;;;12.38;;
37983;SDS011;64625;50.882;4.376;2023-04-07T00:59:56;28.02;;;13.18;;
37983;SDS011;64625;50.882;4.376;2023-04-07T01:10:07;30.75;;;11.60;;
37983;SDS011;64625;50.882;4.376;2023-04-07T01:15:21;20.65;;;11.85;;
37983;SDS011;64625;50.882;4.376;2023-04-07T01:17:51;38.40;;;15.35;;
37983;SDS011;64625;50.882;4.376;2023-04-07T01:20:22;28.02;;;11.38;;
37983;SDS011;64625;50.882;4.376;2023-04-07T01:22:52;27.08;;;12.55;;
37983;SDS011;64625;50.882;4.376;2023-04-07T01:30:30;25.52;;;12.13;;
37983;SDS011;64625;50.882;4.376;2023-04-07T01:32:59;19.95;;;12.27;;
37983;SDS011;64625;50.882;4.376;2023-04-07T01:35:29;26.00;;;12.90;;
37983;SDS011;64625;50.882;4.376;2023-04-07T01:37:58;32.60;;;11.73;;
37983;SDS011;64625;50.882;4.376;2023-04-07T01:40:25;25.25;;;11.52;;
37983;SDS011;64625;50.882;4.376;2023-04-07T01:42:53;21.48;;;11.80;;
37983;SDS011;64625;50.882;4.376;2023-04-07T01:45:21;26.65;;;12.27;;
37983;SDS011;64625;50.882;4.376;2023-04-07T01:47:47;26.27;;;11.82;;
37983;SDS011;64625;50.882;4.376;2023-04-07T01:50:14;26.70;;;12.85;;
37983;SDS011;64625;50.882;4.376;2023-04-07T01:52:45;27.83;;;13.35;;
37983;SDS011;64625;50.882;4.376;2023-04-07T01:55:11;25.52;;;12.60;;
37983;SDS011;64625;50.882;4.376;2023-04-07T01:57:37;29.83;;;12.88;;
37983;SDS011;64625;50.882;4.376;2023-04-07T02:00:03;34.42;;;14.77;;
37983;SDS011;64625;50.882;4.376;2023-04-07T02:02:30;25.67;;;12.20;;
37983;SDS011;64625;50.882;4.376;2023-04-07T02:05:01;33.35;;;13.35;;
37983;SDS011;64625;50.882;4.376;2023-04-07T02:07:35;25.73;;;12.70;;
37983;SDS011;64625;50.882;4.376;2023-04-07T02:10:14;31.15;;;13.60;;
37983;SDS011;64625;50.882;4.376;2023-04-07T02:12:41;29.50;;;13.30;;
37983;SDS011;64625;50.882;4.376;2023-04-07T02:15:10;28.85;;;13.18;;
37983;SDS011;64625;50.882;4.376;2023-04-07T02:17:39;23.85;;;13.30;;
37983;SDS011;64625;50.882;4.376;2023-04-07T02:20:08;37.72;;;14.50;;
37983;SDS011;64625;50.882;4.376;2023-04-07T02:22:38;39.88;;;14.63;;
37983;SDS011;64625;50.882;4.376;2023-04-07T02:25:24;30.42;;;14.02;;
37983;SDS011;64625;50.882;4.376;2023-04-07T02:27:51;39.05;;;14.30;;
37983;SDS011;64625;50.882;4.376;2023-04-07T02:30:18;27.20;;;11.93;;
37983;SDS011;64625;50.882;4.376;2023-04-07T02:32:44;32.75;;;13.98;;
37983;SDS011;64625;50.882;4.376;2023-04-07T02:35:10;29.85;;;12.70;;
37983;SDS011;64625;50.882;4.376;2023-04-07T02:37:37;29.02;;;12.88;;
37983;SDS011;64625;50.882;4.376;2023-04-07T02:40:04;27.02;;;12.20;;
37983;SDS011;64625;50.882;4.376;2023-04-07T02:42:31;22.73;;;11.07;;
37983;SDS011;64625;50.882;4.376;2023-04-07T02:44:57;27.55;;;12.40;;
37983;SDS011;64625;50.882;4.376;2023-04-07T02:47:22;23.30;;;10.90;;
37983;SDS011;64625;50.882;4.376;2023-04-07T02:49:52;24.65;;;10.75;;
37983;SDS011;64625;50.882;4.376;2023-04-07T02:52:18;36.80;;;10.25;;
37983;SDS011;64625;50.882;4.376;2023-04-07T02:54:43;36.33;;;11.80;;
37983;SDS011;64625;50.882;4.376;2023-04-07T02:57:09;27.50;;;12.90;;
37983;SDS011;64625;50.882;4.376;2023-04-07T02:59:35;32.45;;;11.20;;
37983;SDS011;64625;50.882;4.376;2023-04-07T03:02:01;20.60;;;12.00;;
37983;SDS011;64625;50.882;4.376;2023-04-07T03:04:26;23.08;;;10.55;;
37983;SDS011;64625;50.882;4.376;2023-04-07T03:06:52;36.65;;;11.43;;
37983;SDS011;64625;50.882;4.376;2023-04-07T03:09:18;29.50;;;11.90;;
37983;SDS011;64625;50.882;4.376;2023-04-07T03:11:44;31.05;;;13.90;;
37983;SDS011;64625;50.882;4.376;2023-04-07T03:14:10;28.70;;;13.48;;
37983;SDS011;64625;50.882;4.376;2023-04-07T03:16:36;38.25;;;14.05;;
37983;SDS011;64625;50.882;4.376;2023-04-07T03:19:02;63.70;;;17.60;;
37983;SDS011;64625;50.882;4.376;2023-04-07T03:21:28;66.72;;;16.17;;
37983;SDS011;64625;50.882;4.376;2023-04-07T03:23:55;38.97;;;15.43;;
37983;SDS011;64625;50.882;4.376;2023-04-07T03:26:21;55.13;;;15.90;;
37983;SDS011;64625;50.882;4.376;2023-04-07T03:28:47;58.65;;;17.48;;
37983;SDS011;64625;50.882;4.376;2023-04-07T03:31:13;63.28;;;19.17;;
37983;SDS011;64625;50.882;4.376;2023-04-07T03:33:39;53.67;;;18.25;;
37983;SDS011;64625;50.882;4.376;2023-04-07T03:36:05;69.53;;;17.08;;
37983;SDS011;64625;50.882;4.376;2023-04-07T03:38:32;55.40;;;18.77;;
37983;SDS011;64625;50.882;4.376;2023-04-07T03:40:58;65.30;;;16.52;;
37983;SDS011;64625;50.882;4.376;2023-04-07T03:43:23;52.67;;;16.05;;
37983;SDS011;64625;50.882;4.376;2023-04-07T03:45:49;54.83;;;15.63;;
37983;SDS011;64625;50.882;4.376;2023-04-07T03:48:17;49.97;;;15.95;;
37983;SDS011;64625;50.882;4.376;2023-04-07T03:50:44;52.35;;;15.27;;
37983;SDS011;64625;50.882;4.376;2023-04-07T03:53:10;55.97;;;17.48;;
37983;SDS011;64625;50.882;4.376;2023-04-07T03:55:39;49.67;;;16.45;;
37983;SDS011;64625;50.882;4.376;2023-04-07T03:58:05;56.05;;;16.75;;
37983;SDS011;64625;50.882;4.376;2023-04-07T04:00:31;55.28;;;16.20;;
37983;SDS011;64625;50.882;4.376;2023-04-07T04:02:58;48.90;;;13.95;;
37983;SDS011;64625;50.882;4.376;2023-04-07T04:05:24;49.97;;;15.93;;
37983;SDS011;64625;50.882;4.376;2023-04-07T04:07:50;54.25;;;14.45;;
37983;SDS011;64625;50.882;4.376;2023-04-07T04:10:17;45.42;;;14.98;;
37983;SDS011;64625;50.882;4.376;2023-04-07T04:12:44;55.42;;;16.50;;
37983;SDS011;64625;50.882;4.376;2023-04-07T04:15:13;58.28;;;14.98;;
37983;SDS011;64625;50.882;4.376;2023-04-07T04:17:40;66.05;;;16.52;;
37983;SDS011;64625;50.882;4.376;2023-04-07T04:20:06;61.85;;;16.00;;
37983;SDS011;64625;50.882;4.376;2023-04-07T04:22:32;60.63;;;18.50;;
37983;SDS011;64625;50.882;4.376;2023-04-07T04:24:58;66.78;;;18.17;;
37983;SDS011;64625;50.882;4.376;2023-04-07T04:27:24;64.32;;;18.55;;
37983;SDS011;64625;50.882;4.376;2023-04-07T04:29:50;68.88;;;21.05;;
37983;SDS011;64625;50.882;4.376;2023-04-07T04:32:16;64.70;;;17.38;;
37983;SDS011;64625;50.882;4.376;2023-04-07T04:34:42;58.75;;;19.08;;
37983;SDS011;64625;50.882;4.376;2023-04-07T04:37:07;51.13;;;19.63;;
37983;SDS011;64625;50.882;4.376;2023-04-07T04:39:36;61.47;;;20.08;;
37983;SDS011;64625;50.882;4.376;2023-04-07T04:42:02;64.85;;;21.42;;
37983;SDS011;64625;50.882;4.376;2023-04-07T04:44:32;55.05;;;19.35;;
37983;SDS011;64625;50.882;4.376;2023-04-07T04:46:57;74.50;;;19.13;;
37983;SDS011;64625;50.882;4.376;2023-04-07T04:49:23;64.70;;;20.05;;
37983;SDS011;64625;50.882;4.376;2023-04-07T04:51:49;62.53;;;19.17;;
37983;SDS011;64625;50.882;4.376;2023-04-07T04:54:15;66.70;;;18.88;;
37983;SDS011;64625;50.882;4.376;2023-04-07T04:56:41;55.25;;;19.63;;
37983;SDS011;64625;50.882;4.376;2023-04-07T04:59:07;61.70;;;19.83;;
37983;SDS011;64625;50.882;4.376;2023-04-07T05:01:33;61.95;;;17.42;;
37983;SDS011;64625;50.882;4.376;2023-04-07T05:03:59;67.72;;;19.50;;
37983;SDS011;64625;50.882;4.376;2023-04-07T05:06:25;73.63;;;19.45;;
37983;SDS011;64625;50.882;4.376;2023-04-07T05:08:51;73.68;;;20.15;;
37983;SDS011;64625;50.882;4.376;2023-04-07T05:11:18;66.28;;;18.30;;
37983;SDS011;64625;50.882;4.376;2023-04-07T05:13:43;72.20;;;20.25;;
37983;SDS011;64625;50.882;4.376;2023-04-07T05:16:09;59.60;;;21.10;;
37983;SDS011;64625;50.882;4.376;2023-04-07T05:18:35;68.30;;;18.58;;
37983;SDS011;64625;50.882;4.376;2023-04-07T05:21:01;69.32;;;19.05;;
37983;SDS011;64625;50.882;4.376;2023-04-07T05:23:27;61.35;;;18.10;;
37983;SDS011;64625;50.882;4.376;2023-04-07T05:25:53;61.15;;;18.85;;
37983;SDS011;64625;50.882;4.376;2023-04-07T05:28:18;62.38;;;22.23;;
37983;SDS011;64625;50.882;4.376;2023-04-07T05:30:45;62.67;;;23.05;;
37983;SDS011;64625;50.882;4.376;2023-04-07T05:33:12;66.13;;;17.70;;
37983;SDS011;64625;50.882;4.376;2023-04-07T05:35:38;50.92;;;19.73;;
37983;SDS011;64625;50.882;4.376;2023-04-07T05:38:03;55.65;;;19.70;;
37983;SDS011;64625;50.882;4.376;2023-04-07T05:40:30;52.33;;;21.02;;
37983;SDS011;64625;50.882;4.376;2023-04-07T05:42:55;39.00;;;17.33;;
37983;SDS011;64625;50.882;4.376;2023-04-07T05:45:21;57.15;;;19.45;;
37983;SDS011;64625;50.882;4.376;2023-04-07T05:47:47;70.07;;;19.58;;
37983;SDS011;64625;50.882;4.376;2023-04-07T05:50:15;65.10;;;20.77;;
37983;SDS011;64625;50.882;4.376;2023-04-07T05:52:41;72.63;;;21.38;;
37983;SDS011;64625;50.882;4.376;2023-04-07T05:55:07;57.95;;;19.40;;
37983;SDS011;64625;50.882;4.376;2023-04-07T05:57:33;62.22;;;19.60;;
37983;SDS011;64625;50.882;4.376;2023-04-07T05:59:59;85.45;;;23.92;;
37983;SDS011;64625;50.882;4.376;2023-04-07T06:02:25;72.28;;;22.27;;
37983;SDS011;64625;50.882;4.376;2023-04-07T06:04:51;68.68;;;20.20;;
37983;SDS011;64625;50.882;4.376;2023-04-07T06:07:17;59.75;;;22.42;;
37983;SDS011;64625;50.882;4.376;2023-04-07T06:09:43;60.38;;;21.52;;
37983;SDS011;64625;50.882;4.376;2023-04-07T06:12:08;69.50;;;21.08;;
37983;SDS011;64625;50.882;4.376;2023-04-07T06:14:36;64.85;;;21.38;;
37983;SDS011;64625;50.882;4.376;2023-04-07T06:17:03;60.33;;;22.10;;
37983;SDS011;64625;50.882;4.376;2023-04-07T06:19:29;55.90;;;20.52;;
37983;SDS011;64625;50.882;4.376;2023-04-07T06:21:55;65.70;;;21.83;;
37983;SDS011;64625;50.882;4.376;2023-04-07T06:24:20;61.15;;;22.40;;
37983;SDS011;64625;50.882;4.376;2023-04-07T06:26:50;59.53;;;21.55;;
37983;SDS011;64625;50.882;4.376;2023-04-07T06:29:16;77.65;;;39.88;;
37983;SDS011;64625;50.882;4.376;2023-04-07T06:31:42;66.47;;;27.02;;
37983;SDS011;64625;50.882;4.376;2023-04-07T06:34:08;66.28;;;23.38;;
37983;SDS011;64625;50.882;4.376;2023-04-07T06:36:34;59.42;;;21.50;;
37983;SDS011;64625;50.882;4.376;2023-04-07T06:38:59;65.20;;;20.75;;
37983;SDS011;64625;50.882;4.376;2023-04-07T06:41:25;63.00;;;20.27;;
37983;SDS011;64625;50.882;4.376;2023-04-07T06:43:51;68.30;;;23.00;;
37983;SDS011;64625;50.882;4.376;2023-04-07T06:46:21;57.78;;;18.92;;
37983;SDS011;64625;50.882;4.376;2023-04-07T06:48:47;57.10;;;23.83;;
37983;SDS011;64625;50.882;4.376;2023-04-07T06:51:13;46.53;;;21.27;;
37983;SDS011;64625;50.882;4.376;2023-04-07T06:53:38;51.85;;;19.40;;
37983;SDS011;64625;50.882;4.376;2023-04-07T06:56:06;62.53;;;18.90;;
37983;SDS011;64625;50.882;4.376;2023-04-07T06:58:35;53.13;;;19.13;;
37983;SDS011;64625;50.882;4.376;2023-04-07T07:01:01;40.03;;;17.95;;
37983;SDS011;64625;50.882;4.376;2023-04-07T07:03:28;43.67;;;17.05;;
37983;SDS011;64625;50.882;4.376;2023-04-07T07:05:56;48.38;;;19.25;;
37983;SDS011;64625;50.882;4.376;2023-04-07T07:08:22;38.50;;;16.75;;
37983;SDS011;64625;50.882;4.376;2023-04-07T07:10:48;48.53;;;16.55;;
37983;SDS011;64625;50.882;4.376;2023-04-07T07:13:14;34.72;;;16.38;;
37983;SDS011;64625;50.882;4.376;2023-04-07T07:15:40;37.85;;;17.50;;
37983;SDS011;64625;50.882;4.376;2023-04-07T07:18:06;43.15;;;17.13;;
37983;SDS011;64625;50.882;4.376;2023-04-07T07:20:32;40.72;;;16.52;;
37983;SDS011;64625;50.882;4.376;2023-04-07T07:22:58;42.45;;;16.67;;
37983;SDS011;64625;50.882;4.376;2023-04-07T07:25:24;38.30;;;14.98;;
37983;SDS011;64625;50.882;4.376;2023-04-07T07:27:53;42.60;;;15.70;;
37983;SDS011;64625;50.882;4.376;2023-04-07T07:30:19;41.25;;;17.83;;
37983;SDS011;64625;50.882;4.376;2023-04-07T07:32:46;38.72;;;15.30;;
37983;SDS011;64625;50.882;4.376;2023-04-07T07:35:12;42.60;;;16.17;;
37983;SDS011;64625;50.882;4.376;2023-04-07T07:37:38;40.03;;;16.23;;
37983;SDS011;64625;50.882;4.376;2023-04-07T07:40:04;40.33;;;13.88;;
37983;SDS011;64625;50.882;4.376;2023-04-07T07:42:31;37.10;;;16.90;;
37983;SDS011;64625;50.882;4.376;2023-04-07T07:44:57;32.60;;;16.42;;
37983;SDS011;64625;50.882;4.376;2023-04-07T07:47:23;26.85;;;15.65;;
37983;SDS011;64625;50.882;4.376;2023-04-07T07:49:50;30.75;;;16.27;;
37983;SDS011;64625;50.882;4.376;2023-04-07T07:52:16;38.22;;;15.63;;
37983;SDS011;64625;50.882;4.376;2023-04-07T07:54:43;32.25;;;14.57;;
37983;SDS011;64625;50.882;4.376;2023-04-07T07:57:09;37.83;;;14.00;;
37983;SDS011;64625;50.882;4.376;2023-04-07T07:59:35;32.03;;;14.73;;
37983;SDS011;64625;50.882;4.376;2023-04-07T08:02:05;29.70;;;14.07;;
37983;SDS011;64625;50.882;4.376;2023-04-07T08:04:31;29.80;;;11.73;;
37983;SDS011;64625;50.882;4.376;2023-04-07T08:06:57;25.20;;;11.07;;
37983;SDS011;64625;50.882;4.376;2023-04-07T08:09:23;33.45;;;11.60;;
37983;SDS011;64625;50.882;4.376;2023-04-07T08:11:49;29.08;;;11.60;;
37983;SDS011;64625;50.882;4.376;2023-04-07T08:14:16;28.15;;;12.25;;
37983;SDS011;64625;50.882;4.376;2023-04-07T08:16:43;24.67;;;10.65;;
37983;SDS011;64625;50.882;4.376;2023-04-07T08:19:09;29.60;;;9.77;;
37983;SDS011;64625;50.882;4.376;2023-04-07T08:21:35;24.55;;;8.48;;
37983;SDS011;64625;50.882;4.376;2023-04-07T08:24:01;15.80;;;8.40;;
37983;SDS011;64625;50.882;4.376;2023-04-07T08:26:26;32.88;;;8.20;;
37983;SDS011;64625;50.882;4.376;2023-04-07T08:28:52;15.43;;;6.53;;
37983;SDS011;64625;50.882;4.376;2023-04-07T08:31:20;25.33;;;8.00;;
37983;SDS011;64625;50.882;4.376;2023-04-07T08:33:46;16.95;;;7.40;;
37983;SDS011;64625;50.882;4.376;2023-04-07T08:36:12;20.52;;;7.93;;
37983;SDS011;64625;50.882;4.376;2023-04-07T08:38:37;25.98;;;6.95;;
37983;SDS011;64625;50.882;4.376;2023-04-07T08:41:05;22.30;;;7.03;;
37983;SDS011;64625;50.882;4.376;2023-04-07T08:43:35;23.75;;;7.65;;
37983;SDS011;64625;50.882;4.376;2023-04-07T08:46:01;11.55;;;6.63;;
37983;SDS011;64625;50.882;4.376;2023-04-07T08:48:29;15.07;;;7.40;;
37983;SDS011;64625;50.882;4.376;2023-04-07T08:50:59;14.23;;;6.40;;
37983;SDS011;64625;50.882;4.376;2023-04-07T08:53:35;22.65;;;7.57;;
37983;SDS011;64625;50.882;4.376;2023-04-07T08:56:10;11.90;;;6.28;;
37983;SDS011;64625;50.882;4.376;2023-04-07T08:58:36;7.63;;;4.65;;
37983;SDS011;64625;50.882;4.376;2023-04-07T09:01:04;14.05;;;5.05;;
37983;SDS011;64625;50.882;4.376;2023-04-07T09:03:33;16.17;;;4.95;;
37983;SDS011;64625;50.882;4.376;2023-04-07T09:06:02;21.02;;;5.65;;
37983;SDS011;64625;50.882;4.376;2023-04-07T09:08:28;14.40;;;6.35;;
37983;SDS011;64625;50.882;4.376;2023-04-07T09:10:57;14.15;;;6.65;;
37983;SDS011;64625;50.882;4.376;2023-04-07T09:13:23;10.63;;;4.82;;
37983;SDS011;64625;50.882;4.376;2023-04-07T09:15:49;7.80;;;4.68;;
37983;SDS011;64625;50.882;4.376;2023-04-07T09:18:16;8.52;;;4.50;;
37983;SDS011;64625;50.882;4.376;2023-04-07T09:25:55;19.08;;;4.80;;
37983;SDS011;64625;50.882;4.376;2023-04-07T09:28:24;9.15;;;3.95;;
37983;SDS011;64625;50.882;4.376;2023-04-07T09:30:53;8.48;;;3.38;;
37983;SDS011;64625;50.882;4.376;2023-04-07T09:33:26;7.90;;;3.05;;
37983;SDS011;64625;50.882;4.376;2023-04-07T09:35:52;21.05;;;3.90;;
37983;SDS011;64625;50.882;4.376;2023-04-07T09:38:18;4.15;;;2.38;;
37983;SDS011;64625;50.882;4.376;2023-04-07T09:40:44;6.65;;;2.65;;
37983;SDS011;64625;50.882;4.376;2023-04-07T09:43:15;6.68;;;2.40;;
37983;SDS011;64625;50.882;4.376;2023-04-07T09:45:44;11.75;;;3.03;;
37983;SDS011;64625;50.882;4.376;2023-04-07T09:48:19;6.60;;;3.80;;
37983;SDS011;64625;50.882;4.376;2023-04-07T09:50:45;6.95;;;2.45;;
37983;SDS011;64625;50.882;4.376;2023-04-07T09:53:16;9.43;;;2.30;;
37983;SDS011;64625;50.882;4.376;2023-04-07T09:55:43;4.00;;;2.60;;
37983;SDS011;64625;50.882;4.376;2023-04-07T09:58:12;13.98;;;5.38;;
37983;SDS011;64625;50.882;4.376;2023-04-07T10:00:40;8.30;;;1.88;;
37983;SDS011;64625;50.882;4.376;2023-04-07T10:03:06;16.25;;;3.20;;
37983;SDS011;64625;50.882;4.376;2023-04-07T10:05:33;13.38;;;2.28;;
37983;SDS011;64625;50.882;4.376;2023-04-07T10:08:02;8.60;;;2.88;;
37983;SDS011;64625;50.882;4.376;2023-04-07T10:10:30;8.77;;;2.05;;
37983;SDS011;64625;50.882;4.376;2023-04-07T10:12:56;9.75;;;2.28;;
37983;SDS011;64625;50.882;4.376;2023-04-07T10:15:23;4.82;;;1.98;;
37983;SDS011;64625;50.882;4.376;2023-04-07T10:17:49;4.15;;;2.10;;
37983;SDS011;64625;50.882;4.376;2023-04-07T10:20:16;6.88;;;1.80;;
37983;SDS011;64625;50.882;4.376;2023-04-07T10:22:44;2.97;;;2.05;;
37983;SDS011;64625;50.882;4.376;2023-04-07T10:25:15;4.97;;;2.33;;
37983;SDS011;64625;50.882;4.376;2023-04-07T10:30:33;20.33;;;6.40;;
37983;SDS011;64625;50.882;4.376;2023-04-07T10:33:00;7.72;;;3.17;;
37983;SDS011;64625;50.882;4.376;2023-04-07T10:35:26;9.10;;;3.55;;
37983;SDS011;64625;50.882;4.376;2023-04-07T10:38:14;10.15;;;3.60;;
37983;SDS011;64625;50.882;4.376;2023-04-07T10:40:40;14.43;;;4.03;;
37983;SDS011;64625;50.882;4.376;2023-04-07T10:43:08;9.77;;;2.58;;
37983;SDS011;64625;50.882;4.376;2023-04-07T10:45:57;17.42;;;4.00;;
37983;SDS011;64625;50.882;4.376;2023-04-07T10:48:24;9.95;;;3.75;;
37983;SDS011;64625;50.882;4.376;2023-04-07T10:53:32;5.20;;;3.17;;
37983;SDS011;64625;50.882;4.376;2023-04-07T10:55:58;12.30;;;3.47;;
37983;SDS011;64625;50.882;4.376;2023-04-07T10:58:28;8.80;;;3.13;;
37983;SDS011;64625;50.882;4.376;2023-04-07T11:03:51;7.30;;;2.70;;
37983;SDS011;64625;50.882;4.376;2023-04-07T11:06:20;12.48;;;2.90;;
37983;SDS011;64625;50.882;4.376;2023-04-07T11:08:46;6.60;;;2.80;;
37983;SDS011;64625;50.882;4.376;2023-04-07T11:11:13;11.25;;;2.80;;
37983;SDS011;64625;50.882;4.376;2023-04-07T11:16:10;8.85;;;3.28;;
37983;SDS011;64625;50.882;4.376;2023-04-07T11:18:36;13.65;;;4.13;;
37983;SDS011;64625;50.882;4.376;2023-04-07T11:21:03;12.32;;;3.17;;
37983;SDS011;64625;50.882;4.376;2023-04-07T11:23:36;15.63;;;4.63;;
37983;SDS011;64625;50.882;4.376;2023-04-07T11:26:03;29.00;;;5.07;;
37983;SDS011;64625;50.882;4.376;2023-04-07T11:28:29;15.57;;;2.97;;
37983;SDS011;64625;50.882;4.376;2023-04-07T11:30:56;14.07;;;3.90;;
37983;SDS011;64625;50.882;4.376;2023-04-07T11:33:27;9.77;;;2.58;;
37983;SDS011;64625;50.882;4.376;2023-04-07T11:35:58;9.20;;;3.65;;
37983;SDS011;64625;50.882;4.376;2023-04-07T11:38:27;8.75;;;2.50;;
37983;SDS011;64625;50.882;4.376;2023-04-07T11:40:55;6.20;;;2.13;;
37983;SDS011;64625;50.882;4.376;2023-04-07T11:43:24;7.72;;;2.47;;
37983;SDS011;64625;50.882;4.376;2023-04-07T11:46:05;15.25;;;3.05;;
37983;SDS011;64625;50.882;4.376;2023-04-07T11:48:32;9.57;;;2.97;;
37983;SDS011;64625;50.882;4.376;2023-04-07T11:50:59;13.48;;;5.57;;
37983;SDS011;64625;50.882;4.376;2023-04-07T11:53:31;17.88;;;3.78;;
37983;SDS011;64625;50.882;4.376;2023-04-07T11:56:02;17.10;;;2.97;;
37983;SDS011;64625;50.882;4.376;2023-04-07T11:58:30;5.72;;;3.33;;
37983;SDS011;64625;50.882;4.376;2023-04-07T12:00:57;9.63;;;3.45;;
37983;SDS011;64625;50.882;4.376;2023-04-07T12:03:27;13.63;;;3.97;;
37983;SDS011;64625;50.882;4.376;2023-04-07T12:05:53;16.58;;;2.92;;
37983;SDS011;64625;50.882;4.376;2023-04-07T12:08:19;15.10;;;2.72;;
37983;SDS011;64625;50.882;4.376;2023-04-07T12:10:46;12.45;;;3.08;;
37983;SDS011;64625;50.882;4.376;2023-04-07T12:13:12;11.88;;;2.53;;
37983;SDS011;64625;50.882;4.376;2023-04-07T12:15:39;7.85;;;2.30;;
37983;SDS011;64625;50.882;4.376;2023-04-07T12:18:05;10.48;;;2.33;;
37983;SDS011;64625;50.882;4.376;2023-04-07T12:20:31;15.93;;;2.63;;
37983;SDS011;64625;50.882;4.376;2023-04-07T12:22:57;20.15;;;3.35;;
37983;SDS011;64625;50.882;4.376;2023-04-07T12:25:24;11.13;;;3.15;;
37983;SDS011;64625;50.882;4.376;2023-04-07T12:27:51;9.75;;;2.65;;
37983;SDS011;64625;50.882;4.376;2023-04-07T12:30:20;10.35;;;3.45;;
37983;SDS011;64625;50.882;4.376;2023-04-07T12:32:45;16.60;;;5.63;;
37983;SDS011;64625;50.882;4.376;2023-04-07T12:35:11;13.10;;;5.18;;
37983;SDS011;64625;50.882;4.376;2023-04-07T12:37:37;7.93;;;3.78;;
37983;SDS011;64625;50.882;4.376;2023-04-07T12:40:03;11.13;;;4.60;;
37983;SDS011;64625;50.882;4.376;2023-04-07T12:42:29;10.07;;;3.50;;
37983;SDS011;64625;50.882;4.376;2023-04-07T12:44:55;6.97;;;4.40;;
37983;SDS011;64625;50.882;4.376;2023-04-07T12:47:21;17.25;;;4.13;;
37983;SDS011;64625;50.882;4.376;2023-04-07T12:49:46;7.95;;;3.45;;
37983;SDS011;64625;50.882;4.376;2023-04-07T12:52:12;7.90;;;3.03;;
37983;SDS011;64625;50.882;4.376;2023-04-07T12:54:38;13.48;;;4.10;;
37983;SDS011;64625;50.882;4.376;2023-04-07T12:57:04;9.77;;;4.00;;
37983;SDS011;64625;50.882;4.376;2023-04-07T12:59:31;5.00;;;1.60;;
37983;SDS011;64625;50.882;4.376;2023-04-07T13:01:56;10.98;;;3.38;;
37983;SDS011;64625;50.882;4.376;2023-04-07T13:04:22;8.02;;;1.95;;
37983;SDS011;64625;50.882;4.376;2023-04-07T13:06:50;10.95;;;2.97;;
37983;SDS011;64625;50.882;4.376;2023-04-07T13:09:16;10.45;;;3.25;;
37983;SDS011;64625;50.882;4.376;2023-04-07T13:11:42;7.22;;;2.28;;
37983;SDS011;64625;50.882;4.376;2023-04-07T13:14:08;9.60;;;2.22;;
37983;SDS011;64625;50.882;4.376;2023-04-07T13:16:33;11.07;;;2.97;;
37983;SDS011;64625;50.882;4.376;2023-04-07T13:18:59;26.27;;;6.47;;
37983;SDS011;64625;50.882;4.376;2023-04-07T13:21:26;5.78;;;2.40;;
37983;SDS011;64625;50.882;4.376;2023-04-07T13:23:52;8.45;;;3.10;;
37983;SDS011;64625;50.882;4.376;2023-04-07T13:26:18;10.10;;;2.97;;
37983;SDS011;64625;50.882;4.376;2023-04-07T13:28:44;13.60;;;3.40;;
37983;SDS011;64625;50.882;4.376;2023-04-07T13:31:11;6.55;;;2.80;;
37983;SDS011;64625;50.882;4.376;2023-04-07T13:33:40;6.80;;;2.45;;
37983;SDS011;64625;50.882;4.376;2023-04-07T13:36:05;5.85;;;2.22;;
37983;SDS011;64625;50.882;4.376;2023-04-07T13:38:31;3.97;;;1.80;;
37983;SDS011;64625;50.882;4.376;2023-04-07T13:40:57;6.53;;;2.05;;
37983;SDS011;64625;50.882;4.376;2023-04-07T13:43:23;9.93;;;2.42;;
37983;SDS011;64625;50.882;4.376;2023-04-07T13:45:49;4.07;;;2.13;;
37983;SDS011;64625;50.882;4.376;2023-04-07T13:48:15;11.90;;;3.13;;
37983;SDS011;64625;50.882;4.376;2023-04-07T13:50:41;7.05;;;2.25;;
37983;SDS011;64625;50.882;4.376;2023-04-07T13:53:07;16.17;;;2.90;;
37983;SDS011;64625;50.882;4.376;2023-04-07T13:55:33;20.42;;;2.40;;
37983;SDS011;64625;50.882;4.376;2023-04-07T13:57:58;10.50;;;2.80;;
37983;SDS011;64625;50.882;4.376;2023-04-07T14:00:24;20.70;;;2.90;;
37983;SDS011;64625;50.882;4.376;2023-04-07T14:02:50;17.95;;;2.22;;
37983;SDS011;64625;50.882;4.376;2023-04-07T14:05:16;9.43;;;2.45;;
37983;SDS011;64625;50.882;4.376;2023-04-07T14:07:42;10.88;;;2.75;;
37983;SDS011;64625;50.882;4.376;2023-04-07T14:10:08;6.45;;;1.80;;
37983;SDS011;64625;50.882;4.376;2023-04-07T14:12:34;11.60;;;2.20;;
37983;SDS011;64625;50.882;4.376;2023-04-07T14:15:01;19.67;;;2.75;;
37983;SDS011;64625;50.882;4.376;2023-04-07T14:17:28;10.75;;;3.15;;
37983;SDS011;64625;50.882;4.376;2023-04-07T14:19:54;12.82;;;2.10;;
37983;SDS011;64625;50.882;4.376;2023-04-07T14:22:21;10.60;;;2.13;;
37983;SDS011;64625;50.882;4.376;2023-04-07T14:24:47;4.97;;;2.80;;
37983;SDS011;64625;50.882;4.376;2023-04-07T14:27:13;19.23;;;4.03;;
37983;SDS011;64625;50.882;4.376;2023-04-07T14:29:45;13.70;;;3.50;;
37983;SDS011;64625;50.882;4.376;2023-04-07T14:32:12;14.90;;;4.03;;
37983;SDS011;64625;50.882;4.376;2023-04-07T14:34:38;5.22;;;3.13;;
37983;SDS011;64625;50.882;4.376;2023-04-07T14:37:04;16.48;;;3.70;;
37983;SDS011;64625;50.882;4.376;2023-04-07T14:39:30;8.10;;;3.53;;
37983;SDS011;64625;50.882;4.376;2023-04-07T14:41:56;12.23;;;3.42;;
37983;SDS011;64625;50.882;4.376;2023-04-07T14:44:22;16.65;;;4.20;;
37983;SDS011;64625;50.882;4.376;2023-04-07T14:46:47;12.55;;;2.85;;
37983;SDS011;64625;50.882;4.376;2023-04-07T14:49:13;7.05;;;2.70;;
37983;SDS011;64625;50.882;4.376;2023-04-07T14:51:39;7.78;;;2.53;;
37983;SDS011;64625;50.882;4.376;2023-04-07T14:54:05;4.53;;;2.35;;
37983;SDS011;64625;50.882;4.376;2023-04-07T14:56:32;7.45;;;2.05;;
37983;SDS011;64625;50.882;4.376;2023-04-07T14:58:57;7.30;;;2.35;;
37983;SDS011;64625;50.882;4.376;2023-04-07T15:01:23;4.82;;;1.75;;